Time;durP1;ratioP1;P1;durP2;ratioP2;P2;SDS_P1;SDS_P2;PMS_P1;PMS_P2;Temp;Humidity;BMP_temperature;BMP_pressure;BME280_temperature;BME280_humidity;BME280_pressure;Samples;Min_cycle;Max_cycle;Signal;HPM_P1;HPM_P2
2022/08/30 00:01:22;;;;;;;13.23;11.83;;;25.20;84.70;;;;;;5106181;28;20257;-71
2022/08/30 00:03:50;;;;;;;14.87;12.57;;;25.20;84.90;;;;;;5106175;28;20221;-70
2022/08/30 00:06:19;;;;;;;14.43;12.93;;;25.20;85.00;;;;;;5097045;28;20203;-68
2022/08/30 00:08:47;;;;;;;13.67;12.37;;;25.20;85.00;;;;;;5120118;28;20206;-68
2022/08/30 00:11:20;;;;;;;17.83;13.73;;;25.20;85.00;;;;;;5119813;28;20205;-68
2022/08/30 00:13:51;;;;;;;14.53;12.47;;;25.10;85.10;;;;;;5103146;28;20601;-68
2022/08/30 00:16:21;;;;;;;15.70;13.17;;;25.10;85.20;;;;;;5074933;28;20203;-68
2022/08/30 00:18:48;;;;;;;18.23;12.70;;;25.20;85.30;;;;;;5114384;28;20255;-68
2022/08/30 00:21:16;;;;;;;15.10;13.70;;;25.10;85.30;;;;;;5121752;28;20204;-68
2022/08/30 00:23:43;;;;;;;15.80;14.10;;;25.10;85.30;;;;;;5115824;28;20589;-68
2022/08/30 00:26:10;;;;;;;16.07;14.07;;;25.10;85.40;;;;;;5116659;28;20568;-68
2022/08/30 00:28:37;;;;;;;16.57;14.63;;;25.00;85.40;;;;;;5109189;28;20222;-68
2022/08/30 00:31:04;;;;;;;18.23;14.47;;;25.00;85.50;;;;;;5116570;28;20198;-68
2022/08/30 00:33:31;;;;;;;13.67;12.20;;;25.00;85.50;;;;;;5110995;28;20216;-68
2022/08/30 00:35:59;;;;;;;19.00;15.07;;;25.00;85.60;;;;;;5094778;28;20196;-68
2022/08/30 00:38:26;;;;;;;16.37;14.67;;;25.00;85.70;;;;;;5113186;28;20210;-68
2022/08/30 00:40:53;;;;;;;16.17;14.57;;;24.90;85.90;;;;;;5111846;28;20287;-68
2022/08/30 00:43:24;;;;;;;16.90;15.03;;;24.90;86.10;;;;;;5113328;28;20538;-68
2022/08/30 00:45:54;;;;;;;16.73;14.33;;;24.80;86.10;;;;;;5117071;28;20205;-68
2022/08/30 00:48:22;;;;;;;15.83;14.33;;;24.80;86.10;;;;;;5116393;28;20673;-68
2022/08/30 00:50:56;;;;;;;20.70;14.40;;;24.80;86.10;;;;;;5115286;28;20202;-68
2022/08/30 00:53:27;;;;;;;16.80;15.20;;;24.80;86.20;;;;;;5104753;28;20691;-70
2022/08/30 00:55:56;;;;;;;15.50;14.00;;;24.80;86.30;;;;;;5113094;28;20730;-71
2022/08/30 00:58:28;;;;;;;16.50;15.00;;;24.80;86.50;;;;;;5111542;28;20257;-71
2022/08/30 01:00:57;;;;;;;18.70;16.60;;;24.80;86.40;;;;;;5093167;27;20208;-70
2022/08/30 01:03:24;;;;;;;18.10;16.20;;;24.70;86.20;;;;;;5117236;27;20291;-71
2022/08/30 01:05:52;;;;;;;18.13;16.33;;;24.70;86.30;;;;;;5118346;27;20192;-70
2022/08/30 01:08:23;;;;;;;17.70;16.00;;;24.70;86.50;;;;;;5115822;27;20192;-71
2022/08/30 01:10:53;;;;;;;18.50;16.53;;;24.60;86.60;;;;;;5105301;27;20197;-70
2022/08/30 01:13:23;;;;;;;17.10;15.40;;;24.60;86.70;;;;;;5099530;27;20255;-68
2022/08/30 01:15:50;;;;;;;18.47;15.73;;;24.60;86.90;;;;;;5098234;27;20190;-68
2022/08/30 01:18:19;;;;;;;17.20;15.53;;;24.60;87.00;;;;;;5126055;27;20240;-68
2022/08/30 01:21:13;;;;;;;18.23;15.57;;;24.60;87.00;;;;;;5103023;28;20204;-68
2022/08/30 01:23:43;;;;;;;20.33;15.17;;;24.60;86.80;;;;;;5084118;28;20296;-68
2022/08/30 01:26:12;;;;;;;19.83;16.60;;;24.60;86.50;;;;;;5117989;27;20291;-68
2022/08/30 01:28:46;;;;;;;18.20;16.40;;;24.60;86.40;;;;;;5119563;27;20195;-68
2022/08/30 01:31:14;;;;;;;20.50;18.37;;;24.50;86.50;;;;;;5122031;27;20199;-68
2022/08/30 01:33:42;;;;;;;21.37;17.17;;;24.50;86.80;;;;;;5121345;27;20233;-68
2022/08/30 01:36:12;;;;;;;18.40;16.50;;;24.50;87.20;;;;;;5119700;27;20504;-67
2022/08/30 01:38:50;;;;;;;21.00;18.90;;;24.40;87.00;;;;;;5118937;27;20622;-68
2022/08/30 01:41:27;;;;;;;19.40;17.50;;;24.30;87.20;;;;;;5102009;27;20211;-68
2022/08/30 01:43:56;;;;;;;20.83;18.67;;;24.30;87.60;;;;;;5122211;27;20204;-68
2022/08/30 01:46:27;;;;;;;19.87;17.77;;;24.30;88.00;;;;;;5115230;27;20197;-68
2022/08/30 01:48:56;;;;;;;20.77;18.57;;;24.30;88.30;;;;;;5115766;27;20211;-68
2022/08/30 01:51:27;;;;;;;20.57;18.20;;;24.20;88.50;;;;;;5117256;27;20554;-68
2022/08/30 01:53:55;;;;;;;18.03;16.33;;;24.30;88.80;;;;;;5106214;27;20713;-68
2022/08/30 01:56:24;;;;;;;19.10;17.10;;;24.20;88.80;;;;;;5115857;27;20207;-68
2022/08/30 01:58:52;;;;;;;19.43;17.53;;;24.20;88.80;;;;;;5119402;27;20493;-67
2022/08/30 02:01:21;;;;;;;19.87;17.77;;;24.20;88.80;;;;;;5118145;27;20266;-67
2022/08/30 02:03:48;;;;;;;21.30;18.43;;;24.20;88.80;;;;;;5098835;27;20215;-68
2022/08/30 02:06:18;;;;;;;19.60;17.60;;;24.20;89.00;;;;;;5122323;27;20276;-68
2022/08/30 02:08:45;;;;;;;17.87;15.97;;;24.20;89.30;;;;;;5118237;27;20222;-68
2022/08/30 02:11:13;;;;;;;19.07;17.17;;;24.20;89.30;;;;;;5119677;27;20196;-68
2022/08/30 02:13:42;;;;;;;27.00;18.67;;;24.20;89.20;;;;;;5117944;27;20315;-67
2022/08/30 02:16:12;;;;;;;17.97;16.27;;;24.20;89.10;;;;;;5119481;27;20189;-68
2022/08/30 02:18:40;;;;;;;19.27;17.37;;;24.10;89.00;;;;;;5121304;27;20297;-67
2022/08/30 02:21:07;;;;;;;18.23;16.40;;;24.10;89.00;;;;;;5119397;27;20641;-67
2022/08/30 02:23:35;;;;;;;19.67;17.67;;;24.10;89.00;;;;;;5120832;27;20204;-68
2022/08/30 02:26:03;;;;;;;17.90;16.07;;;24.10;89.10;;;;;;5098867;28;20216;-68
2022/08/30 02:28:30;;;;;;;18.30;16.50;;;24.10;89.10;;;;;;5115933;27;20204;-67
2022/08/30 02:30:59;;;;;;;19.17;17.17;;;24.00;89.20;;;;;;5095461;28;20212;-67
2022/08/30 02:33:26;;;;;;;17.87;15.83;;;24.00;89.00;;;;;;5097428;27;20201;-68
2022/08/30 02:35:54;;;;;;;17.70;16.00;;;24.00;88.80;;;;;;5099386;27;20196;-68
2022/08/30 02:38:23;;;;;;;18.37;16.43;;;24.00;88.80;;;;;;5119038;27;20200;-67
2022/08/30 02:40:51;;;;;;;23.47;16.50;;;23.90;88.80;;;;;;5120298;27;20189;-67
2022/08/30 02:43:18;;;;;;;17.90;16.13;;;23.90;88.90;;;;;;5104862;27;20551;-68
2022/08/30 02:45:45;;;;;;;18.30;16.57;;;23.90;88.90;;;;;;5113009;27;20192;-67
2022/08/30 02:48:12;;;;;;;18.13;16.40;;;23.90;88.90;;;;;;5117809;27;20859;-67
2022/08/30 02:50:41;;;;;;;18.87;17.07;;;23.90;89.00;;;;;;5113719;27;20204;-67
2022/08/30 02:53:09;;;;;;;21.40;18.00;;;23.90;89.20;;;;;;5100534;27;20200;-67
2022/08/30 02:55:42;;;;;;;23.07;20.73;;;23.90;89.30;;;;;;5112929;27;20216;-67
2022/08/30 02:58:09;;;;;;;21.27;19.07;;;23.80;89.50;;;;;;5119675;27;20528;-67
2022/08/30 03:00:38;;;;;;;19.30;17.33;;;23.80;89.90;;;;;;5123196;27;20208;-68
2022/08/30 03:03:06;;;;;;;17.70;15.90;;;23.80;89.90;;;;;;5101388;28;20753;-67
2022/08/30 03:05:34;;;;;;;17.93;16.07;;;23.80;89.40;;;;;;5119501;27;20200;-67
2022/08/30 03:08:06;;;;;;;22.03;18.40;;;23.70;89.30;;;;;;5119673;27;20200;-67
2022/08/30 03:10:34;;;;;;;23.30;19.23;;;23.70;89.40;;;;;;5117254;27;20192;-67
2022/08/30 03:13:02;;;;;;;19.40;17.40;;;23.70;89.50;;;;;;5112936;27;20299;-68
2022/08/30 03:15:29;;;;;;;22.87;17.87;;;23.70;89.60;;;;;;5096805;27;20215;-67
2022/08/30 03:17:57;;;;;;;19.30;16.23;;;23.70;89.60;;;;;;5086070;27;20219;-67
2022/08/30 03:20:25;;;;;;;21.00;16.10;;;23.70;89.40;;;;;;5113011;27;20210;-68
2022/08/30 03:22:52;;;;;;;17.30;15.70;;;23.60;89.10;;;;;;5113646;27;20689;-67
2022/08/30 03:25:21;;;;;;;20.33;18.33;;;23.60;89.10;;;;;;5121141;27;20280;-68
2022/08/30 03:27:49;;;;;;;23.17;19.90;;;23.60;89.30;;;;;;5113229;27;20204;-67
2022/08/30 03:30:18;;;;;;;21.97;19.87;;;23.60;89.50;;;;;;5120069;27;20204;-67
2022/08/30 03:32:45;;;;;;;22.37;20.17;;;23.60;89.80;;;;;;5116283;27;20196;-67
2022/08/30 03:35:13;;;;;;;19.97;18.07;;;23.60;90.00;;;;;;5110358;27;20235;-67
2022/08/30 03:37:40;;;;;;;17.00;15.37;;;23.60;90.00;;;;;;5119321;27;20192;-68
2022/08/30 03:40:09;;;;;;;20.40;18.40;;;23.50;89.80;;;;;;5113314;27;20208;-67
2022/08/30 03:42:37;;;;;;;24.43;20.23;;;23.50;89.60;;;;;;5117532;27;20222;-67
2022/08/30 03:45:06;;;;;;;21.17;18.97;;;23.50;89.90;;;;;;5105217;27;20207;-67
2022/08/30 03:47:33;;;;;;;22.47;20.33;;;23.50;90.10;;;;;;5117756;27;20202;-67
2022/08/30 03:50:00;;;;;;;22.53;20.23;;;23.50;90.20;;;;;;5119542;27;20234;-67
2022/08/30 03:52:27;;;;;;;21.70;19.50;;;23.40;90.10;;;;;;5112009;27;20204;-67
2022/08/30 03:54:54;;;;;;;20.57;18.47;;;23.40;90.10;;;;;;5116112;27;20227;-67
2022/08/30 03:57:21;;;;;;;21.57;19.40;;;23.40;90.10;;;;;;5098992;28;20650;-67
2022/08/30 03:59:50;;;;;;;19.87;17.73;;;23.40;90.10;;;;;;5121272;27;20196;-67
2022/08/30 04:02:17;;;;;;;22.07;20.00;;;23.30;90.10;;;;;;5101076;28;20201;-67
2022/08/30 04:04:45;;;;;;;21.70;19.57;;;23.30;90.20;;;;;;5095530;28;20216;-68
2022/08/30 04:07:12;;;;;;;23.67;20.27;;;23.30;90.20;;;;;;5120235;28;20219;-67
2022/08/30 04:09:39;;;;;;;24.27;21.73;;;23.30;90.30;;;;;;5103510;28;20626;-67
2022/08/30 04:12:07;;;;;;;23.90;21.60;;;23.30;90.40;;;;;;5108890;28;20701;-67
2022/08/30 04:14:34;;;;;;;24.33;21.93;;;23.30;90.50;;;;;;5121302;28;20216;-67
2022/08/30 04:17:01;;;;;;;21.70;19.60;;;23.30;90.70;;;;;;5115657;28;20197;-67
2022/08/30 04:19:28;;;;;;;24.97;22.47;;;23.30;90.60;;;;;;5097672;28;20238;-67
2022/08/30 04:21:56;;;;;;;22.57;20.43;;;23.20;90.60;;;;;;5115876;28;20206;-67
2022/08/30 04:24:23;;;;;;;22.33;20.23;;;23.20;90.80;;;;;;5115291;28;20196;-67
2022/08/30 04:26:50;;;;;;;20.23;18.07;;;23.20;90.80;;;;;;5117120;28;20195;-67
2022/08/30 04:29:17;;;;;;;20.20;18.07;;;23.20;90.70;;;;;;5115242;28;20200;-67
2022/08/30 04:31:44;;;;;;;21.30;19.10;;;23.20;90.50;;;;;;5100665;28;20207;-67
2022/08/30 04:34:12;;;;;;;26.17;23.40;;;23.20;90.40;;;;;;5099961;28;20515;-67
2022/08/30 04:36:39;;;;;;;24.70;22.40;;;23.10;90.50;;;;;;5120117;27;20626;-67
2022/08/30 04:39:07;;;;;;;23.87;21.57;;;23.10;90.80;;;;;;5108133;27;20196;-67
2022/08/30 04:41:36;;;;;;;21.87;19.67;;;23.20;90.80;;;;;;5118252;27;20526;-67
2022/08/30 04:44:03;;;;;;;22.73;20.20;;;23.20;90.80;;;;;;5112755;27;20535;-67
2022/08/30 04:46:30;;;;;;;20.77;18.77;;;23.20;90.70;;;;;;5118160;27;20192;-67
2022/08/30 04:48:57;;;;;;;26.73;24.00;;;23.10;90.70;;;;;;5105138;28;20203;-67
2022/08/30 04:51:24;;;;;;;25.10;22.40;;;23.10;90.70;;;;;;5117882;27;20253;-67
2022/08/30 04:53:51;;;;;;;25.57;22.87;;;23.10;90.80;;;;;;5087367;28;20506;-67
2022/08/30 04:56:23;;;;;;;28.50;25.50;;;23.20;90.90;;;;;;5110062;27;20538;-67
2022/08/30 04:58:53;;;;;;;27.80;25.00;;;23.20;91.00;;;;;;5115720;27;20234;-67
2022/08/30 05:01:23;;;;;;;25.97;23.23;;;23.20;91.10;;;;;;5114021;27;20201;-67
2022/08/30 05:03:52;;;;;;;26.30;23.50;;;23.30;91.20;;;;;;5118773;27;20204;-67
2022/08/30 05:06:20;;;;;;;26.73;23.77;;;23.30;91.20;;;;;;5121206;27;20193;-67
2022/08/30 05:08:47;;;;;;;24.77;22.37;;;23.30;91.20;;;;;;5105094;28;20207;-67
2022/08/30 05:11:16;;;;;;;26.47;23.73;;;23.30;91.20;;;;;;5116848;27;20537;-67
2022/08/30 05:13:44;;;;;;;25.57;22.77;;;23.30;91.50;;;;;;5123646;27;20204;-67
2022/08/30 05:16:16;;;;;;;24.30;21.70;;;23.30;91.30;;;;;;5119955;27;20228;-67
2022/08/30 05:18:45;;;;;;;26.33;22.53;;;23.30;91.30;;;;;;5122062;27;20315;-67
2022/08/30 05:21:25;;;;;;;24.80;21.90;;;23.30;91.40;;;;;;5116114;27;20192;-67
2022/08/30 05:23:54;;;;;;;24.60;21.70;;;23.30;91.70;;;;;;5123213;27;20249;-67
2022/08/30 05:26:25;;;;;;;22.80;20.50;;;23.30;91.40;;;;;;5108674;27;20217;-67
2022/08/30 05:28:52;;;;;;;25.57;22.90;;;23.30;91.40;;;;;;5116130;27;20211;-67
2022/08/30 05:31:27;;;;;;;24.93;22.30;;;23.40;91.50;;;;;;5104152;27;20212;-67
2022/08/30 05:33:54;;;;;;;27.13;24.17;;;23.40;91.50;;;;;;5118357;27;20649;-67
2022/08/30 05:36:24;;;;;;;25.80;23.00;;;23.40;91.50;;;;;;5105664;28;20212;-67
2022/08/30 05:38:53;;;;;;;26.20;23.23;;;23.40;91.50;;;;;;5116614;27;20197;-67
2022/08/30 05:41:22;;;;;;;26.07;23.40;;;23.40;91.50;;;;;;5120839;27;20197;-67
2022/08/30 05:43:55;;;;;;;28.23;23.67;;;23.50;91.40;;;;;;5116645;27;20207;-67
2022/08/30 05:46:22;;;;;;;27.87;24.90;;;23.50;91.50;;;;;;5116173;27;20211;-67
2022/08/30 05:48:50;;;;;;;27.57;24.63;;;23.50;91.50;;;;;;5121508;27;20528;-67
2022/08/30 05:51:23;;;;;;;28.23;25.30;;;23.60;91.60;;;;;;5077056;27;20223;-67
2022/08/30 05:53:52;;;;;;;26.47;23.80;;;23.60;91.70;;;;;;5119746;27;20196;-67
2022/08/30 05:56:22;;;;;;;27.63;24.27;;;23.60;91.70;;;;;;5105371;27;20281;-67
2022/08/30 05:58:52;;;;;;;26.47;23.63;;;23.70;92.10;;;;;;5105490;27;20201;-67
2022/08/30 06:01:31;;;;;;;26.60;23.80;;;23.80;91.90;;;;;;5118998;27;20193;-67
2022/08/30 06:04:00;;;;;;;26.67;23.80;;;23.90;91.90;;;;;;5104378;27;20630;-67
2022/08/30 06:06:34;;;;;;;25.03;22.67;;;24.10;91.80;;;;;;5117933;27;20205;-67
2022/08/30 06:09:03;;;;;;;23.83;21.43;;;24.30;91.70;;;;;;5098409;28;20197;-67
2022/08/30 06:11:32;;;;;;;25.60;23.00;;;24.50;91.40;;;;;;5115995;27;20192;-67
2022/08/30 06:14:00;;;;;;;23.93;21.63;;;24.80;91.20;;;;;;5102967;27;20200;-67
2022/08/30 06:16:27;;;;;;;27.10;23.47;;;25.00;90.80;;;;;;5118412;27;20221;-67
2022/08/30 06:18:56;;;;;;;25.53;23.03;;;25.20;90.50;;;;;;5115725;27;20245;-67
2022/08/30 06:21:24;;;;;;;24.93;22.43;;;25.40;90.30;;;;;;5120079;27;20200;-67
2022/08/30 06:23:52;;;;;;;23.90;21.37;;;25.50;90.00;;;;;;5117503;27;20202;-67
2022/08/30 06:26:20;;;;;;;26.90;24.33;;;25.60;89.30;;;;;;5121179;27;20227;-67
2022/08/30 06:28:48;;;;;;;23.40;21.10;;;25.70;88.80;;;;;;5121419;27;20638;-67
2022/08/30 06:31:16;;;;;;;25.00;22.60;;;25.80;88.60;;;;;;5100801;27;20235;-67
2022/08/30 06:33:45;;;;;;;26.87;24.27;;;25.90;88.50;;;;;;5111523;27;20207;-67
2022/08/30 06:36:17;;;;;;;25.87;23.30;;;26.00;87.80;;;;;;5086789;27;20622;-67
2022/08/30 06:38:46;;;;;;;27.60;24.80;;;26.00;87.70;;;;;;5120677;27;20203;-68
2022/08/30 06:41:17;;;;;;;28.57;25.67;;;26.10;87.30;;;;;;5120035;27;20598;-67
2022/08/30 06:43:45;;;;;;;29.17;26.27;;;26.10;87.00;;;;;;5103437;27;20207;-67
2022/08/30 06:46:25;;;;;;;27.27;24.67;;;26.10;87.20;;;;;;5123083;27;20229;-67
2022/08/30 06:48:54;;;;;;;28.03;25.07;;;26.10;87.50;;;;;;5111095;27;20620;-67
2022/08/30 06:51:25;;;;;;;27.67;24.83;;;26.20;87.70;;;;;;5118394;27;20263;-67
2022/08/30 06:53:52;;;;;;;26.43;23.83;;;26.30;87.70;;;;;;5115936;27;20237;-67
2022/08/30 06:56:20;;;;;;;26.07;23.27;;;26.50;87.10;;;;;;5115195;27;20539;-67
2022/08/30 06:58:49;;;;;;;24.30;21.77;;;26.60;86.70;;;;;;5097938;27;20203;-67
2022/08/30 07:01:25;;;;;;;24.10;21.80;;;26.70;86.40;;;;;;5116311;27;20200;-67
2022/08/30 07:03:53;;;;;;;23.23;21.03;;;26.90;86.00;;;;;;5120676;27;20635;-67
2022/08/30 07:06:21;;;;;;;23.33;21.13;;;27.00;85.60;;;;;;5102605;28;20295;-67
2022/08/30 07:08:49;;;;;;;20.93;18.83;;;27.20;85.00;;;;;;5116484;27;20212;-67
2022/08/30 07:11:33;;;;;;;21.87;19.47;;;27.30;84.70;;;;;;5120212;27;20217;-67
2022/08/30 07:14:01;;;;;;;20.03;18.07;;;27.40;83.90;;;;;;5115402;27;20211;-68
2022/08/30 07:16:29;;;;;;;19.13;17.23;;;27.60;83.60;;;;;;5114497;27;20281;-67
2022/08/30 07:18:57;;;;;;;18.70;16.77;;;27.70;82.80;;;;;;5117616;27;20255;-67
2022/08/30 07:21:33;;;;;;;18.43;15.93;;;27.70;82.40;;;;;;5102557;27;20897;-67
2022/08/30 07:24:01;;;;;;;18.60;15.87;;;27.80;81.60;;;;;;5116520;27;20203;-67
2022/08/30 07:26:40;;;;;;;20.50;16.60;;;27.90;81.40;;;;;;5118461;27;20717;-67
2022/08/30 07:29:08;;;;;;;17.83;16.07;;;28.00;81.80;;;;;;5115800;27;20532;-67
2022/08/30 07:31:36;;;;;;;17.20;15.40;;;28.10;80.10;;;;;;5116163;27;20925;-67
2022/08/30 07:34:05;;;;;;;19.03;15.40;;;28.20;80.00;;;;;;5120058;27;20210;-67
2022/08/30 07:36:33;;;;;;;17.43;15.73;;;28.20;79.90;;;;;;5115137;27;20235;-67
2022/08/30 07:39:01;;;;;;;17.67;15.23;;;28.40;79.80;;;;;;5113579;27;20207;-67
2022/08/30 07:41:32;;;;;;;19.07;17.03;;;28.50;79.60;;;;;;5111604;27;20196;-67
2022/08/30 07:44:00;;;;;;;20.80;18.20;;;28.60;79.10;;;;;;5115191;27;20196;-67
2022/08/30 07:46:27;;;;;;;25.20;19.80;;;28.70;78.40;;;;;;5118766;27;20737;-67
2022/08/30 07:48:55;;;;;;;20.13;18.00;;;28.80;78.00;;;;;;5119782;27;20196;-67
2022/08/30 07:51:24;;;;;;;17.90;16.10;;;28.90;77.70;;;;;;5114295;27;20207;-67
2022/08/30 07:53:53;;;;;;;21.27;18.37;;;28.90;77.10;;;;;;5119257;27;20196;-67
2022/08/30 07:56:20;;;;;;;18.80;16.00;;;29.00;76.90;;;;;;5109822;27;20216;-67
2022/08/30 07:58:48;;;;;;;17.00;15.10;;;29.10;76.50;;;;;;5110695;27;20189;-67
2022/08/30 08:01:17;;;;;;;14.93;13.47;;;29.20;76.30;;;;;;5116205;28;20197;-67
2022/08/30 08:03:45;;;;;;;13.80;12.27;;;29.30;75.80;;;;;;5115192;28;20208;-68
2022/08/30 08:06:14;;;;;;;12.87;11.40;;;29.40;75.20;;;;;;5113790;28;20868;-67
2022/08/30 08:08:41;;;;;;;10.90;9.83;;;29.60;74.40;;;;;;5117279;27;20223;-67
2022/08/30 08:11:16;;;;;;;13.80;9.90;;;29.70;73.60;;;;;;5123199;27;20216;-67
2022/08/30 08:13:45;;;;;;;12.97;11.23;;;29.80;73.00;;;;;;5121042;27;20211;-68
2022/08/30 08:16:20;;;;;;;10.00;8.63;;;30.00;72.40;;;;;;5125197;27;20224;-67
2022/08/30 08:18:48;;;;;;;12.33;11.03;;;30.10;71.90;;;;;;5121134;27;20230;-68
2022/08/30 08:21:15;;;;;;;10.10;8.97;;;30.20;71.00;;;;;;5115235;27;20219;-66
2022/08/30 08:23:42;;;;;;;8.80;8.00;;;30.30;70.30;;;;;;5120301;27;20192;-68
2022/08/30 08:26:09;;;;;;;9.70;7.87;;;30.40;70.30;;;;;;5117867;27;20204;-68
2022/08/30 08:28:36;;;;;;;12.17;8.83;;;30.40;70.40;;;;;;5125790;27;20769;-67
2022/08/30 08:31:32;;;;;;;9.47;7.20;;;30.50;70.00;;;;;;5122472;27;20195;-67
2022/08/30 08:34:01;;;;;;;8.57;6.50;;;30.50;69.30;;;;;;5121198;27;20211;-67
2022/08/30 08:36:30;;;;;;;9.03;6.43;;;30.70;69.30;;;;;;5120543;27;20216;-67
2022/08/30 08:38:58;;;;;;;7.30;6.60;;;30.80;68.90;;;;;;5117297;27;20212;-67
2022/08/30 08:42:04;;;;;;;13.70;7.30;;;31.00;68.50;;;;;;5122729;27;20283;-67
2022/08/30 08:44:31;;;;;;;6.73;5.77;;;31.10;67.80;;;;;;5124113;27;20215;-67
2022/08/30 08:47:15;;;;;;;7.20;6.60;;;31.10;68.30;;;;;;5114306;27;20638;-67
2022/08/30 08:49:46;;;;;;;6.90;6.03;;;31.20;67.10;;;;;;5116596;27;20211;-67
2022/08/30 08:55:28;;;;;;;8.77;6.27;;;31.30;67.10;;;;;;5122499;27;20220;-68
2022/08/30 08:57:56;;;;;;;8.80;6.17;;;31.30;66.30;;;;;;5123826;27;20193;-68
2022/08/30 09:00:23;;;;;;;6.97;6.33;;;31.30;65.60;;;;;;5125615;27;20202;-68
2022/08/30 09:02:59;;;;;;;12.13;7.13;;;31.30;65.60;;;;;;5117950;27;20250;-68
2022/08/30 09:05:30;;;;;;;8.47;6.40;;;31.20;66.10;;;;;;5117068;27;20649;-68
2022/08/30 09:08:02;;;;;;;9.40;7.83;;;31.10;65.80;;;;;;5116416;27;20215;-68
2022/08/30 09:10:36;;;;;;;8.00;7.23;;;31.10;64.70;;;;;;5088984;28;20226;-68
2022/08/30 09:13:17;;;;;;;7.90;5.27;;;30.90;65.60;;;;;;5114963;27;20273;-68
2022/08/30 09:15:45;;;;;;;7.83;5.63;;;30.80;66.50;;;;;;5117082;27;20315;-68
2022/08/30 09:18:18;;;;;;;7.87;5.73;;;30.80;66.60;;;;;;5125218;27;20266;-68
2022/08/30 09:20:50;;;;;;;5.70;4.80;;;30.90;65.50;;;;;;5084481;28;20208;-68
2022/08/30 09:23:17;;;;;;;9.10;6.70;;;31.00;65.60;;;;;;5106518;27;20203;-68
2022/08/30 09:25:56;;;;;;;6.37;4.80;;;31.20;63.70;;;;;;5121986;27;20211;-68
2022/08/30 09:28:29;;;;;;;4.70;4.30;;;31.20;63.60;;;;;;5113953;27;20210;-68
2022/08/30 09:31:03;;;;;;;6.83;4.40;;;31.20;64.50;;;;;;5114187;27;20230;-68
2022/08/30 09:33:37;;;;;;;6.10;5.20;;;31.30;64.60;;;;;;5117687;27;20205;-68
2022/08/30 09:36:21;;;;;;;8.10;5.27;;;31.40;63.30;;;;;;5123364;27;20226;-68
2022/08/30 09:38:58;;;;;;;6.50;5.07;;;31.50;62.90;;;;;;5122735;27;20191;-68
2022/08/30 09:41:39;;;;;;;6.20;4.00;;;31.50;62.50;;;;;;5116093;27;20196;-68
2022/08/30 09:44:24;;;;;;;7.00;4.67;;;31.50;62.70;;;;;;5121425;27;20287;-68
2022/08/30 09:46:59;;;;;;;7.53;4.67;;;31.60;61.70;;;;;;5107724;27;20207;-68
2022/08/30 09:49:34;;;;;;;5.53;5.10;;;31.70;62.60;;;;;;5088385;27;20653;-68
2022/08/30 09:52:29;;;;;;;4.73;4.30;;;31.80;62.00;;;;;;5097790;28;20199;-68
2022/08/30 09:55:17;;;;;;;4.93;4.47;;;31.80;60.70;;;;;;5111612;27;20207;-68
2022/08/30 09:57:47;;;;;;;6.63;4.30;;;32.00;61.20;;;;;;5117986;27;20211;-68
2022/08/30 10:00:18;;;;;;;8.27;5.77;;;32.00;61.20;;;;;;5101979;27;20208;-68
2022/08/30 10:03:15;;;;;;;6.37;5.20;;;32.10;60.20;;;;;;5123221;27;20196;-68
2022/08/30 10:06:23;;;;;;;5.77;4.40;;;32.10;59.60;;;;;;5117290;27;20209;-68
2022/08/30 10:09:16;;;;;;;6.13;4.40;;;32.00;59.40;;;;;;5099491;27;20201;-68
2022/08/30 10:11:59;;;;;;;5.67;4.73;;;32.00;58.90;;;;;;5115592;27;20200;-68
2022/08/30 10:14:45;;;;;;;4.83;4.30;;;32.00;59.50;;;;;;5116638;27;20239;-68
2022/08/30 10:17:12;;;;;;;4.00;3.70;;;32.10;58.40;;;;;;5119708;27;20227;-68
2022/08/30 10:19:50;;;;;;;4.50;4.10;;;32.20;57.10;;;;;;5113496;27;20236;-68
2022/08/30 10:22:36;;;;;;;4.73;4.23;;;32.30;58.40;;;;;;5117828;27;20291;-68
2022/08/30 10:25:23;;;;;;;4.63;4.23;;;32.30;57.70;;;;;;5122773;27;20192;-68
2022/08/30 10:28:14;;;;;;;4.43;4.03;;;32.30;55.90;;;;;;5101321;27;20193;-69
2022/08/30 10:30:46;;;;;;;7.27;4.33;;;32.30;56.40;;;;;;5119111;27;20195;-68
2022/08/30 10:33:15;;;;;;;6.87;4.20;;;32.50;57.00;;;;;;5107541;27;20196;-68
2022/08/30 10:35:47;;;;;;;8.43;4.13;;;32.60;56.80;;;;;;5111442;27;20220;-68
2022/08/30 10:38:33;;;;;;;10.20;4.13;;;32.60;56.00;;;;;;5114508;27;20231;-69
2022/08/30 10:41:15;;;;;;;4.57;3.67;;;32.70;55.80;;;;;;5114018;27;20637;-69
2022/08/30 10:44:20;;;;;;;5.67;4.47;;;32.70;55.60;;;;;;5120265;27;20809;-69
2022/08/30 10:47:24;;;;;;;6.30;4.77;;;32.80;56.00;;;;;;5118667;27;20208;-69
2022/08/30 10:50:27;;;;;;;7.10;4.40;;;32.90;55.40;;;;;;5125740;27;20197;-69
2022/08/30 10:53:10;;;;;;;4.33;3.70;;;32.90;55.60;;;;;;5102051;27;20550;-69
2022/08/30 10:56:02;;;;;;;8.47;4.30;;;33.00;55.50;;;;;;5115397;27;20212;-69
2022/08/30 10:58:30;;;;;;;5.13;4.63;;;33.10;55.30;;;;;;5085476;28;20204;-69
2022/08/30 11:01:24;;;;;;;4.20;3.80;;;33.30;53.20;;;;;;5112924;27;20201;-69
2022/08/30 11:04:23;;;;;;;4.73;4.00;;;33.30;54.20;;;;;;5113627;27;20219;-69
2022/08/30 11:07:02;;;;;;;5.50;3.87;;;33.50;54.00;;;;;;5089206;28;20199;-68
2022/08/30 11:09:43;;;;;;;5.03;4.00;;;33.70;53.40;;;;;;5116995;27;20206;-69
2022/08/30 11:12:18;;;;;;;4.13;3.40;;;33.90;51.40;;;;;;5105926;27;20519;-70
2022/08/30 11:14:46;;;;;;;5.07;4.33;;;33.90;52.30;;;;;;5123741;27;20198;-68
2022/08/30 11:17:37;;;;;;;6.13;3.80;;;34.00;52.00;;;;;;5109603;27;20228;-68
2022/08/30 11:20:27;;;;;;;3.70;3.40;;;34.10;52.80;;;;;;5074284;28;20582;-69
2022/08/30 11:23:17;;;;;;;8.23;3.90;;;34.10;51.90;;;;;;5096753;28;20202;-69
2022/08/30 11:25:55;;;;;;;5.00;3.43;;;34.10;51.90;;;;;;5097583;28;20229;-69
2022/08/30 11:28:36;;;;;;;9.83;4.03;;;34.00;51.60;;;;;;5095631;28;20201;-69
2022/08/30 11:31:36;;;;;;;6.83;3.77;;;33.90;50.80;;;;;;5100755;28;20193;-69
2022/08/30 11:34:05;;;;;;;5.80;3.60;;;33.80;52.20;;;;;;5097481;28;20217;-69
2022/08/30 11:36:34;;;;;;;3.70;3.47;;;33.80;52.30;;;;;;5099571;28;20220;-69
2022/08/30 11:39:05;;;;;;;4.70;3.27;;;33.80;50.70;;;;;;5103278;28;20209;-69
2022/08/30 11:41:42;;;;;;;3.37;3.07;;;33.70;50.40;;;;;;5094086;28;20189;-69
2022/08/30 11:44:25;;;;;;;9.20;3.20;;;33.60;50.70;;;;;;5092899;28;20202;-69
2022/08/30 11:47:34;;;;;;;5.67;3.27;;;33.60;51.10;;;;;;5102413;28;20264;-69
2022/08/30 11:50:06;;;;;;;6.87;3.33;;;33.60;51.40;;;;;;5087222;28;20224;-69
2022/08/30 11:52:58;;;;;;;4.27;3.87;;;33.60;50.60;;;;;;5100717;28;20206;-69
2022/08/30 11:55:34;;;;;;;4.60;3.73;;;33.30;50.60;;;;;;5094919;28;20211;-69
2022/08/30 11:58:34;;;;;;;4.70;3.20;;;33.10;51.80;;;;;;5103026;28;20294;-69
2022/08/30 12:01:23;;;;;;;3.00;2.67;;;33.00;51.80;;;;;;5091849;28;20221;-69
2022/08/30 12:04:16;;;;;;;4.60;3.20;;;32.90;52.00;;;;;;5093896;28;20619;-69
2022/08/30 12:06:59;;;;;;;5.80;3.33;;;32.90;50.90;;;;;;5099262;28;20288;-69
2022/08/30 12:09:26;;;;;;;6.10;3.40;;;32.90;50.90;;;;;;5089251;28;20201;-69
2022/08/30 12:12:29;;;;;;;5.57;3.57;;;32.90;52.20;;;;;;5094605;28;20679;-69
2022/08/30 12:14:56;;;;;;;3.93;3.20;;;33.10;50.90;;;;;;5083763;28;20215;-69
2022/08/30 12:20:15;;;;;;;3.60;3.30;;;33.20;50.20;;;;;;5098577;28;20189;-69
2022/08/30 12:22:44;;;;;;;3.57;3.13;;;33.30;51.00;;;;;;5096402;28;20229;-69
2022/08/30 12:25:26;;;;;;;3.30;2.97;;;33.30;51.40;;;;;;5089910;28;20290;-69
2022/08/30 12:28:09;;;;;;;6.57;3.60;;;33.40;51.20;;;;;;5096381;28;20235;-69
2022/08/30 12:30:38;;;;;;;4.73;3.23;;;33.50;50.30;;;;;;5093527;28;20205;-69
2022/08/30 12:33:11;;;;;;;6.07;3.40;;;33.40;49.60;;;;;;5094398;28;20624;-69
2022/08/30 12:35:42;;;;;;;5.50;3.30;;;33.30;50.30;;;;;;5089834;28;20228;-69
2022/08/30 12:38:19;;;;;;;3.17;2.87;;;33.20;50.30;;;;;;5099863;28;20226;-69
2022/08/30 12:40:57;;;;;;;4.97;3.60;;;33.20;50.10;;;;;;5091226;28;20685;-69
2022/08/30 12:43:26;;;;;;;4.93;3.47;;;33.10;49.60;;;;;;5093994;28;20190;-70
2022/08/30 12:46:11;;;;;;;3.20;2.90;;;33.10;49.70;;;;;;5100969;28;20205;-69
2022/08/30 12:48:41;;;;;;;6.87;3.50;;;33.10;50.50;;;;;;5093404;28;20549;-69
2022/08/30 12:51:34;;;;;;;3.70;3.33;;;33.20;51.20;;;;;;5087726;28;20250;-69
2022/08/30 12:54:05;;;;;;;4.90;2.93;;;33.30;50.20;;;;;;5097943;28;20284;-69
2022/08/30 12:56:53;;;;;;;4.43;2.63;;;33.40;50.00;;;;;;5116279;27;20236;-69
2022/08/30 12:59:50;;;;;;;5.93;3.30;;;33.60;50.30;;;;;;5089375;28;20212;-69
2022/08/30 13:02:40;;;;;;;3.40;3.10;;;33.80;50.10;;;;;;5095357;28;20200;-69
2022/08/30 13:05:46;;;;;;;5.17;3.07;;;33.80;47.30;;;;;;5110876;27;20229;-69
2022/08/30 13:08:47;;;;;;;3.57;3.10;;;33.80;47.90;;;;;;5028462;28;20215;-69